createdAt,value
2023-05-17T00:02:29.774Z,101486.94
2023-05-17T00:04:59.714Z,101489.63
2023-05-17T00:07:50.340Z,101484.00
2023-05-17T00:13:12.674Z,101483.81
2023-05-17T00:15:47.333Z,101488.28
2023-05-17T00:18:29.189Z,101477.50
2023-05-17T00:21:12.960Z,101473.00
2023-05-17T00:23:47.824Z,101480.28
2023-05-17T00:29:15.317Z,101479.13
2023-05-17T00:31:45.515Z,101491.75
2023-05-17T00:40:19.852Z,101483.50
2023-05-17T00:42:48.638Z,101480.28
2023-05-17T00:45:24.519Z,101489.56
2023-05-17T00:48:05.172Z,101491.25
2023-05-17T00:51:03.147Z,101489.06
2023-05-17T00:53:45.275Z,101485.03
2023-05-17T01:02:11.240Z,101484.47
2023-05-17T01:04:51.123Z,101500.31
2023-05-17T01:07:29.854Z,101497.88
2023-05-17T01:10:09.374Z,101503.94
2023-05-17T01:13:07.071Z,101500.19
2023-05-17T01:16:02.436Z,101514.56
2023-05-17T01:18:45.588Z,101515.69
2023-05-17T01:25:37.200Z,101514.03
2023-05-17T01:35:13.495Z,101510.88
2023-05-17T01:51:08.100Z,101526.69
2023-05-17T01:56:52.386Z,101527.13
2023-05-17T01:59:42.694Z,101528.34
2023-05-17T02:02:15.281Z,101523.91
2023-05-17T02:04:54.222Z,101527.50
2023-05-17T02:07:29.985Z,101526.28
2023-05-17T02:10:08.585Z,101530.00
2023-05-17T02:12:40.265Z,101518.53
2023-05-17T02:18:22.615Z,101540.41
2023-05-17T02:20:53.307Z,101540.47
2023-05-17T02:23:22.828Z,101533.06
2023-05-17T02:25:51.849Z,101523.88
2023-05-17T02:28:21.678Z,101530.41
2023-05-17T02:30:53.626Z,101535.06
2023-05-17T02:33:23.168Z,101537.72
2023-05-17T02:35:52.734Z,101533.31
2023-05-17T02:38:22.687Z,101532.22
2023-05-17T02:40:51.952Z,101545.41
2023-05-17T02:43:21.574Z,101532.13
2023-05-17T02:45:52.809Z,101534.34
2023-05-17T02:48:22.490Z,101536.00
2023-05-17T02:50:51.356Z,101542.69
2023-05-17T02:53:21.078Z,101549.13
2023-05-17T02:55:49.545Z,101543.56
2023-05-17T02:58:18.502Z,101543.16
2023-05-17T03:00:47.871Z,101547.03
2023-05-17T03:03:18.806Z,101557.63
2023-05-17T03:05:49.931Z,101568.59
2023-05-17T03:08:19.084Z,101555.47
2023-05-17T03:10:49.304Z,101558.41
2023-05-17T03:13:17.785Z,101565.03
2023-05-17T03:15:47.119Z,101575.06
2023-05-17T03:18:15.989Z,101576.31
2023-05-17T03:20:48.004Z,101577.09
2023-05-17T03:23:17.560Z,101583.69
2023-05-17T03:26:02.368Z,101577.63
2023-05-17T03:28:35.763Z,101586.03
2023-05-17T03:31:06.599Z,101594.22
2023-05-17T03:33:36.510Z,101599.03
2023-05-17T03:36:10.649Z,101597.66
2023-05-17T03:38:39.709Z,101609.22
2023-05-17T03:41:08.847Z,101596.75
2023-05-17T03:43:38.136Z,101599.59
2023-05-17T03:46:08.357Z,101605.53
2023-05-17T03:48:38.847Z,101610.28
2023-05-17T03:51:11.755Z,101607.94
2023-05-17T03:53:43.684Z,101616.31
2023-05-17T03:56:12.420Z,101616.00
2023-05-17T03:58:41.057Z,101618.34
2023-05-17T04:01:09.560Z,101617.88
2023-05-17T04:03:38.175Z,101627.16
2023-05-17T04:06:11.582Z,101628.50
2023-05-17T04:08:43.742Z,101633.47
2023-05-17T04:11:15.064Z,101640.22
2023-05-17T04:13:44.975Z,101643.03
2023-05-17T04:16:13.376Z,101655.16
2023-05-17T04:18:45.654Z,101647.78
2023-05-17T04:21:16.662Z,101656.84
2023-05-17T04:23:48.482Z,101653.38
2023-05-17T04:26:19.285Z,101655.31
2023-05-17T04:28:48.253Z,101656.50
2023-05-17T04:31:18.381Z,101667.41
2023-05-17T04:33:47.954Z,101667.91
2023-05-17T04:36:19.257Z,101669.81
2023-05-17T04:38:48.376Z,101672.63
2023-05-17T04:41:22.352Z,101687.03
2023-05-17T04:43:51.651Z,101687.50
2023-05-17T04:46:28.214Z,101676.25
2023-05-17T04:48:58.843Z,101687.28
2023-05-17T04:51:29.803Z,101685.13
2023-05-17T04:54:04.254Z,101692.72
2023-05-17T04:56:33.908Z,101703.06
2023-05-17T04:59:02.728Z,101701.06
2023-05-17T05:01:35.527Z,101701.66
2023-05-17T05:04:07.519Z,101707.31
2023-05-17T05:06:43.291Z,101701.06
2023-05-17T05:09:12.721Z,101710.84
2023-05-17T05:11:41.614Z,101711.66
2023-05-17T05:14:14.323Z,101722.28
2023-05-17T05:16:49.644Z,101721.66
2023-05-17T05:19:28.835Z,101730.50
2023-05-17T05:22:08.406Z,101733.56
2023-05-17T05:24:46.955Z,101728.75
2023-05-17T05:27:20.398Z,101741.72
2023-05-17T05:29:52.686Z,101738.75
2023-05-17T05:32:29.118Z,101746.72
2023-05-17T05:35:07.063Z,101755.03
2023-05-17T05:37:44.021Z,101757.69
2023-05-17T05:40:19.918Z,101757.97
2023-05-17T05:42:56.683Z,101761.88
2023-05-17T05:48:28.431Z,101774.81
2023-05-17T05:51:10.951Z,101771.97
2023-05-17T05:54:05.391Z,101766.94
2023-05-17T05:56:40.825Z,101779.19
2023-05-17T06:02:30.319Z,101784.31
2023-05-17T06:05:07.664Z,101783.34
2023-05-17T06:07:41.365Z,101785.16
2023-05-17T06:10:34.972Z,101782.44
2023-05-17T06:13:07.136Z,101788.78
2023-05-17T06:15:41.895Z,101795.81
2023-05-17T06:18:17.585Z,101794.00
2023-05-17T06:20:49.479Z,101791.91
2023-05-17T06:23:29.315Z,101802.06
2023-05-17T06:26:55.536Z,101797.72
2023-05-17T06:29:44.840Z,101801.97
2023-05-17T06:35:21.332Z,101795.88
2023-05-17T06:38:01.207Z,101820.69
2023-05-17T06:40:49.405Z,101830.66
2023-05-17T06:43:17.723Z,101815.34
2023-05-17T06:45:48.928Z,101806.69
2023-05-17T06:48:18.308Z,101819.56
2023-05-17T06:50:48.469Z,101813.53
2023-05-17T06:53:22.898Z,101825.41
2023-05-17T06:56:00.184Z,101827.56
2023-05-17T06:58:32.160Z,101821.25
2023-05-17T07:01:03.801Z,101835.44
2023-05-17T07:03:49.315Z,101829.84
2023-05-17T07:06:37.615Z,101827.81
2023-05-17T07:09:14.096Z,101840.75
2023-05-17T07:11:44.413Z,101847.34
2023-05-17T07:14:20.984Z,101845.63
2023-05-17T07:20:26.298Z,101848.88
2023-05-17T07:22:54.634Z,101848.97
2023-05-17T07:25:22.817Z,101862.00
2023-05-17T07:27:50.941Z,101863.41
2023-05-17T07:30:19.488Z,101867.53
2023-05-17T07:32:49.755Z,101860.38
2023-05-17T07:35:19.266Z,101861.94
2023-05-17T07:37:49.613Z,101880.00
2023-05-17T07:40:18.452Z,101873.25
2023-05-17T07:42:46.523Z,101871.75
2023-05-17T07:45:14.569Z,101878.47
2023-05-17T07:47:43.482Z,101875.16
2023-05-17T07:50:14.530Z,101889.31
2023-05-17T07:52:42.977Z,101885.75
2023-05-17T07:55:12.457Z,101891.69
2023-05-17T07:57:41.111Z,101902.84
2023-05-17T08:00:17.243Z,101901.50
2023-05-17T08:02:48.894Z,101905.19
2023-05-17T08:05:19.070Z,101906.56
2023-05-17T08:07:49.053Z,101909.03
2023-05-17T08:10:20.119Z,101931.66
2023-05-17T08:12:49.356Z,101921.13
2023-05-17T08:15:19.166Z,101932.72
2023-05-17T08:17:48.369Z,101931.72
2023-05-17T08:20:16.562Z,101933.72
2023-05-17T08:22:51.260Z,101939.50
2023-05-17T08:25:20.965Z,101940.66
2023-05-17T08:27:50.169Z,101948.84
2023-05-17T08:30:28.533Z,101937.81
2023-05-17T08:32:58.418Z,101933.22
2023-05-17T08:35:28.926Z,101950.50
2023-05-17T08:37:59.013Z,101952.72
2023-05-17T08:40:29.037Z,101944.22
2023-05-17T08:42:58.244Z,101947.47
2023-05-17T08:45:29.835Z,101936.25
2023-05-17T08:47:58.534Z,101940.66
2023-05-17T08:50:30.899Z,101931.31
2023-05-17T08:53:01.829Z,101921.25
2023-05-17T08:55:33.419Z,101935.00
2023-05-17T08:58:02.621Z,101954.81
2023-05-17T09:00:33.636Z,101945.72
2023-05-17T09:03:02.008Z,101950.31
2023-05-17T09:05:30.971Z,101947.28
2023-05-17T09:08:01.068Z,101954.25
2023-05-17T09:10:31.990Z,101930.03
2023-05-17T09:13:00.113Z,101952.34
2023-05-17T09:15:30.544Z,101935.38
2023-05-17T09:17:59.168Z,101937.97
2023-05-17T09:20:35.790Z,101943.53
2023-05-17T09:23:05.733Z,101940.72
2023-05-17T09:25:42.453Z,101933.13
2023-05-17T09:28:11.470Z,101927.38
2023-05-17T09:30:41.973Z,101934.47
2023-05-17T09:33:12.454Z,101934.09
2023-05-17T09:35:44.494Z,101924.41
2023-05-17T09:38:15.354Z,101935.91
2023-05-17T09:40:46.185Z,101932.78
2023-05-17T09:43:14.551Z,101934.31
2023-05-17T09:45:42.743Z,101906.63
2023-05-17T09:48:15.779Z,101920.53
2023-05-17T09:50:48.792Z,101932.34
2023-05-17T09:53:29.538Z,101919.63
2023-05-17T09:56:00.488Z,101926.84
2023-05-17T09:58:29.975Z,101927.38
2023-05-17T10:01:01.978Z,101943.09
2023-05-17T10:03:35.828Z,101930.03
2023-05-17T10:06:08.054Z,101930.16
2023-05-17T10:08:39.780Z,101936.34
2023-05-17T10:11:10.592Z,101940.88
2023-05-17T10:13:51.481Z,101937.34
2023-05-17T10:16:27.046Z,101948.56
2023-05-17T10:18:56.273Z,101941.91
2023-05-17T10:21:28.906Z,101942.16
2023-05-17T10:24:08.989Z,101936.53
2023-05-17T10:26:52.045Z,101929.53
2023-05-17T10:29:22.875Z,101933.41
2023-05-17T10:31:52.448Z,101948.84
2023-05-17T10:34:21.961Z,101958.06
2023-05-17T10:36:51.036Z,101946.81
2023-05-17T10:39:22.141Z,101949.03
2023-05-17T10:42:03.278Z,101932.00
2023-05-17T10:44:41.459Z,101930.69
2023-05-17T10:47:10.091Z,101933.66
2023-05-17T10:49:39.652Z,101962.19
2023-05-17T10:52:15.195Z,101953.47
2023-05-17T10:54:46.577Z,101945.66
2023-05-17T10:57:22.687Z,101937.66
2023-05-17T10:59:58.991Z,101953.84
2023-05-17T11:02:28.593Z,101926.13
2023-05-17T11:04:58.128Z,101948.22
2023-05-17T11:07:29.646Z,101929.53
2023-05-17T11:10:07.323Z,101921.03
2023-05-17T11:12:41.241Z,101905.69
2023-05-17T11:15:10.982Z,101916.31
2023-05-17T11:17:51.518Z,101931.56
2023-05-17T11:20:37.269Z,101938.03
2023-05-17T11:23:09.183Z,101933.22
2023-05-17T11:28:29.115Z,101934.78
2023-05-17T11:31:02.686Z,101932.22
2023-05-17T11:33:40.342Z,101933.31
2023-05-17T11:36:20.833Z,101934.06
2023-05-17T11:39:10.317Z,101942.84
2023-05-17T11:41:41.586Z,101938.66
2023-05-17T11:44:10.168Z,101946.41
2023-05-17T11:46:39.201Z,101948.34
2023-05-17T11:49:08.536Z,101949.53
2023-05-17T11:51:36.811Z,101950.25
2023-05-17T11:54:06.480Z,101943.03
2023-05-17T11:56:43.675Z,101951.38
2023-05-17T11:59:12.380Z,101949.63
2023-05-17T12:01:44.559Z,101974.38
2023-05-17T12:04:12.527Z,101955.41
2023-05-17T12:06:40.805Z,101949.03
2023-05-17T12:09:11.139Z,101956.72
2023-05-17T12:11:43.447Z,101959.97
2023-05-17T12:14:11.660Z,101951.31
2023-05-17T12:16:44.069Z,101956.16
2023-05-17T12:19:19.300Z,101963.66
2023-05-17T12:21:47.395Z,101966.13
2023-05-17T12:24:15.819Z,101966.66
2023-05-17T12:26:46.000Z,101982.59
2023-05-17T12:29:15.924Z,101992.28
2023-05-17T12:31:47.061Z,101975.44
2023-05-17T12:34:16.980Z,101981.84
2023-05-17T12:36:45.674Z,101982.16
2023-05-17T12:39:15.505Z,101985.38
2023-05-17T12:41:45.877Z,101972.88
2023-05-17T12:44:16.516Z,101972.19
2023-05-17T12:46:44.991Z,101969.00
2023-05-17T12:49:13.502Z,101976.22
2023-05-17T12:51:43.431Z,101984.31
2023-05-17T12:54:12.300Z,101988.97
2023-05-17T12:56:44.769Z,101983.06
2023-05-17T12:59:16.812Z,101979.06
2023-05-17T13:01:46.991Z,101980.81
2023-05-17T13:04:16.461Z,101982.50
2023-05-17T13:06:45.785Z,101971.88
2023-05-17T13:09:14.279Z,102006.16
2023-05-17T13:11:42.673Z,101985.47
2023-05-17T13:14:12.639Z,102001.59
2023-05-17T13:16:42.890Z,101994.25
2023-05-17T13:19:14.756Z,101990.19
2023-05-17T13:21:42.815Z,101991.53
2023-05-17T13:24:11.266Z,101978.53
2023-05-17T13:26:39.160Z,101981.84
2023-05-17T13:29:07.784Z,101997.56
2023-05-17T13:31:35.996Z,101984.19
2023-05-17T13:34:05.303Z,101975.94
2023-05-17T13:36:33.412Z,101980.25
2023-05-17T13:39:02.425Z,102003.94
2023-05-17T13:41:33.526Z,101995.94
2023-05-17T13:44:01.951Z,101995.28
2023-05-17T13:46:30.089Z,101980.81
2023-05-17T13:48:58.830Z,101990.63
2023-05-17T13:51:28.712Z,101987.19
2023-05-17T13:53:57.147Z,101969.41
2023-05-17T13:56:25.148Z,101981.50
2023-05-17T13:58:53.768Z,101979.22
2023-05-17T14:01:22.074Z,101974.91
2023-05-17T14:03:50.244Z,101982.88
2023-05-17T14:06:18.459Z,101970.34
2023-05-17T14:08:47.982Z,101965.94
2023-05-17T14:11:15.940Z,101974.16
2023-05-17T14:13:44.015Z,101982.81
2023-05-17T14:16:12.012Z,101981.09
2023-05-17T14:18:40.042Z,101981.63
2023-05-17T14:21:09.181Z,101980.72
2023-05-17T14:23:37.727Z,101992.22
2023-05-17T14:26:09.235Z,101979.66
2023-05-17T14:28:39.182Z,101987.72
2023-05-17T14:31:08.011Z,101973.41
2023-05-17T14:33:36.618Z,101973.28
2023-05-17T14:36:04.975Z,101978.59
2023-05-17T14:38:33.224Z,101966.41
2023-05-17T14:41:02.803Z,101970.94
2023-05-17T14:43:33.096Z,101980.31
2023-05-17T14:46:01.587Z,101980.25
2023-05-17T14:48:31.151Z,101966.97
2023-05-17T14:50:59.381Z,101960.28
2023-05-17T14:53:29.493Z,101953.09
2023-05-17T14:55:58.974Z,101965.03
2023-05-17T14:58:27.651Z,101961.28
2023-05-17T15:01:05.620Z,101980.91
2023-05-17T15:03:36.030Z,101974.75
2023-05-17T15:06:07.570Z,101970.38
2023-05-17T15:08:39.246Z,101969.94
2023-05-17T15:11:07.488Z,101968.22
2023-05-17T15:13:35.541Z,101985.69
2023-05-17T15:16:05.079Z,101995.34
2023-05-17T15:18:33.504Z,101993.75
2023-05-17T15:21:03.023Z,101992.31
2023-05-17T15:23:32.161Z,101988.47
2023-05-17T15:26:00.658Z,101987.34
2023-05-17T15:28:29.000Z,101995.66
2023-05-17T15:31:07.721Z,102012.72
2023-05-17T15:33:36.548Z,102005.47
2023-05-17T15:36:05.133Z,102005.31
2023-05-17T15:38:33.439Z,101997.78
2023-05-17T15:41:06.072Z,101977.50
2023-05-17T15:43:35.679Z,101976.50
2023-05-17T15:46:05.070Z,101991.44
2023-05-17T15:48:34.281Z,101987.38
2023-05-17T15:51:03.259Z,101998.94
2023-05-17T15:53:32.600Z,101997.34
2023-05-17T15:56:00.942Z,101994.88
2023-05-17T15:58:29.433Z,101994.34
2023-05-17T16:00:57.601Z,101997.69
2023-05-17T16:03:27.195Z,102007.06
2023-05-17T16:05:55.523Z,102008.78
2023-05-17T16:08:23.693Z,102004.66
2023-05-17T16:10:52.003Z,102009.47
2023-05-17T16:13:19.938Z,102015.16
2023-05-17T16:15:48.305Z,102011.78
2023-05-17T16:21:07.992Z,102000.56
2023-05-17T16:23:36.370Z,101998.31
2023-05-17T16:26:05.059Z,101997.56
2023-05-17T16:28:37.019Z,102003.72
2023-05-17T16:31:05.675Z,102013.16
2023-05-17T16:33:33.932Z,102012.09
2023-05-17T16:36:02.220Z,102022.22
2023-05-17T16:38:32.077Z,102025.16
2023-05-17T16:41:03.391Z,102040.22
2023-05-17T16:43:32.095Z,102039.91
2023-05-17T16:46:00.339Z,102040.72
2023-05-17T16:48:28.513Z,102036.59
2023-05-17T16:50:58.215Z,102034.31
2023-05-17T16:53:28.085Z,102033.72
2023-05-17T16:55:57.593Z,102043.84
2023-05-17T16:58:26.072Z,102035.56
2023-05-17T17:00:54.331Z,102041.22
2023-05-17T17:03:22.247Z,102044.41
2023-05-17T17:05:53.068Z,102048.47
2023-05-17T17:08:20.941Z,102049.41
2023-05-17T17:10:48.805Z,102057.56
2023-05-17T17:13:18.107Z,102059.66
2023-05-17T17:15:46.658Z,102071.72
2023-05-17T17:18:14.730Z,102059.28
2023-05-17T17:20:42.799Z,102067.00
2023-05-17T17:23:10.726Z,102069.34
2023-05-17T17:25:38.702Z,102069.34
2023-05-17T17:28:06.888Z,102058.72
2023-05-17T17:30:36.368Z,102066.69
2023-05-17T17:33:04.550Z,102067.66
2023-05-17T17:35:32.706Z,102070.22
2023-05-17T17:38:02.121Z,102060.97
2023-05-17T17:40:30.448Z,102079.50
2023-05-17T17:42:58.529Z,102068.44
2023-05-17T17:45:26.430Z,102077.28
2023-05-17T17:47:55.841Z,102084.63
2023-05-17T17:50:23.881Z,102075.63
2023-05-17T17:52:51.962Z,102082.34
2023-05-17T17:55:20.514Z,102078.06
2023-05-17T17:57:48.497Z,102095.09
2023-05-17T18:00:17.038Z,102086.16
2023-05-17T18:02:45.132Z,102088.31
2023-05-17T18:05:14.468Z,102090.31
2023-05-17T18:07:42.377Z,102082.28
2023-05-17T18:10:10.993Z,102083.66
2023-05-17T18:12:38.906Z,102093.41
2023-05-17T18:15:07.593Z,102099.19
2023-05-17T18:17:36.209Z,102080.97
2023-05-17T18:20:06.281Z,102086.75
2023-05-17T18:22:35.832Z,102081.56
2023-05-17T18:25:03.910Z,102099.94
2023-05-17T18:27:32.490Z,102088.59
2023-05-17T18:30:00.755Z,102093.19
2023-05-17T18:32:29.482Z,102097.50
2023-05-17T18:34:57.848Z,102088.56
2023-05-17T18:37:25.714Z,102096.72
2023-05-17T18:39:55.267Z,102101.59
2023-05-17T18:42:24.961Z,102094.75
2023-05-17T18:44:53.340Z,102102.03
2023-05-17T18:47:23.282Z,102096.69
2023-05-17T18:49:51.904Z,102106.34
2023-05-17T18:52:19.859Z,102106.28
2023-05-17T18:54:47.985Z,102102.53
2023-05-17T18:57:17.224Z,102115.78
2023-05-17T18:59:45.449Z,102106.56
2023-05-17T19:02:13.554Z,102113.69
2023-05-17T19:04:41.523Z,102116.47
2023-05-17T19:07:09.618Z,102114.78
2023-05-17T19:09:37.914Z,102125.19
2023-05-17T19:12:06.902Z,102128.53
2023-05-17T19:14:38.361Z,102127.84
2023-05-17T19:17:10.317Z,102121.22
2023-05-17T19:19:38.443Z,102125.34
2023-05-17T19:22:06.749Z,102125.22
2023-05-17T19:24:35.933Z,102124.66
2023-05-17T19:27:04.857Z,102124.66
2023-05-17T19:29:33.154Z,102125.91
2023-05-17T19:32:03.417Z,102128.19
2023-05-17T19:34:31.654Z,102144.88
2023-05-17T19:37:00.017Z,102135.38
2023-05-17T19:39:27.984Z,102142.53
2023-05-17T19:41:56.073Z,102145.41
2023-05-17T19:44:24.432Z,102149.22
2023-05-17T19:46:53.834Z,102145.47
2023-05-17T19:49:23.862Z,102159.38
2023-05-17T19:51:54.036Z,102159.53
2023-05-17T19:54:22.531Z,102161.78
2023-05-17T19:56:50.661Z,102154.19
2023-05-17T19:59:18.884Z,102158.09
2023-05-17T20:01:48.087Z,102161.81
2023-05-17T20:04:17.030Z,102164.88
2023-05-17T20:06:46.826Z,102153.19
2023-05-17T20:09:15.363Z,102161.63
2023-05-17T20:11:43.488Z,102162.03
2023-05-17T20:14:12.325Z,102160.59
2023-05-17T20:16:40.432Z,102162.00
2023-05-17T20:19:08.746Z,102165.88
2023-05-17T20:21:37.054Z,102163.16
2023-05-17T20:24:07.239Z,102158.00
2023-05-17T20:26:36.941Z,102161.94
2023-05-17T20:29:06.118Z,102167.84
2023-05-17T20:31:34.341Z,102160.63
2023-05-17T20:34:02.515Z,102158.66
2023-05-17T20:36:32.128Z,102159.59
2023-05-17T20:39:00.075Z,102159.56
2023-05-17T20:41:29.735Z,102165.91
2023-05-17T20:43:57.846Z,102171.13
2023-05-17T20:46:29.846Z,102172.66
2023-05-17T20:48:58.371Z,102174.75
2023-05-17T20:51:27.515Z,102169.41
2023-05-17T20:53:55.708Z,102167.72
2023-05-17T20:56:23.898Z,102172.69
2023-05-17T20:58:54.068Z,102174.25
2023-05-17T21:01:22.611Z,102185.88
2023-05-17T21:03:52.291Z,102182.84
2023-05-17T21:06:22.128Z,102179.19
2023-05-17T21:08:52.085Z,102178.75
2023-05-17T21:11:22.195Z,102187.38
2023-05-17T21:13:51.472Z,102182.84
2023-05-17T21:16:21.276Z,102186.00
2023-05-17T21:18:49.617Z,102188.03
2023-05-17T21:21:17.831Z,102185.31
2023-05-17T21:23:46.077Z,102194.94
2023-05-17T21:26:14.650Z,102195.84
2023-05-17T21:28:43.005Z,102199.78
2023-05-17T21:31:11.573Z,102189.97
2023-05-17T21:33:41.250Z,102185.38
2023-05-17T21:36:09.724Z,102189.34
2023-05-17T21:38:38.038Z,102186.94
2023-05-17T21:41:06.223Z,102187.59
2023-05-17T21:43:34.232Z,102188.53
2023-05-17T21:46:02.720Z,102196.41
2023-05-17T21:48:31.521Z,102193.00
2023-05-17T21:51:00.878Z,102191.31
2023-05-17T21:53:28.926Z,102193.84
2023-05-17T21:56:02.551Z,102196.34
2023-05-17T21:58:32.488Z,102199.38
2023-05-17T22:01:00.502Z,102201.16
2023-05-17T22:03:28.566Z,102208.09
2023-05-17T22:05:56.585Z,102201.50
2023-05-17T22:08:26.011Z,102203.03
2023-05-17T22:10:55.625Z,102211.09
2023-05-17T22:13:26.288Z,102208.88
2023-05-17T22:15:56.913Z,102212.00
2023-05-17T22:18:26.858Z,102209.63
2023-05-17T22:20:55.064Z,102218.41
2023-05-17T22:23:22.984Z,102205.91
2023-05-17T22:25:52.376Z,102218.13
2023-05-17T22:28:20.621Z,102222.16
2023-05-17T22:30:48.701Z,102218.97
2023-05-17T22:33:16.847Z,102214.91
2023-05-17T22:35:45.413Z,102219.75
2023-05-17T22:38:15.988Z,102220.78
2023-05-17T22:40:44.208Z,102223.75
2023-05-17T22:43:14.056Z,102227.44
2023-05-17T22:45:42.493Z,102219.75
2023-05-17T22:48:10.656Z,102220.41
2023-05-17T22:50:38.756Z,102222.22
2023-05-17T22:53:06.892Z,102214.72
2023-05-17T22:55:35.075Z,102222.78
2023-05-17T22:58:03.068Z,102224.19
2023-05-17T23:00:32.355Z,102228.84
2023-05-17T23:03:00.289Z,102224.84
2023-05-17T23:05:28.236Z,102223.91
2023-05-17T23:07:56.398Z,102217.09
2023-05-17T23:10:24.466Z,102218.31
2023-05-17T23:12:52.717Z,102220.56
2023-05-17T23:15:20.830Z,102215.72
2023-05-17T23:17:51.066Z,102218.22
2023-05-17T23:20:20.060Z,102215.75
2023-05-17T23:22:48.837Z,102219.47
2023-05-17T23:25:16.941Z,102214.97
2023-05-17T23:27:45.495Z,102219.00
2023-05-17T23:30:13.941Z,102217.66
2023-05-17T23:32:42.773Z,102216.88
2023-05-17T23:35:12.292Z,102208.09
2023-05-17T23:37:40.459Z,102209.09
2023-05-17T23:40:10.402Z,102219.72
2023-05-17T23:42:38.562Z,102209.47
2023-05-17T23:45:07.703Z,102213.28
2023-05-17T23:47:35.591Z,102216.09
2023-05-17T23:50:03.942Z,102213.00
2023-05-17T23:52:33.124Z,102213.78
2023-05-17T23:55:01.594Z,102206.84
2023-05-17T23:57:29.593Z,102216.84
2023-05-17T23:59:57.618Z,102217.63
